Aérodrome :
LOGIN :

S'inscrire | Disclaimer

   EN    FR    IT 

 










Légende :    VFR   VFR Marginal   IFR   IFR Intensif   IFR Très Intensif
Visi : 
Plafond : 
>= 8 km
>= 3000ft
5 à 8 km
1000 à 3000 ft
1500m à 5 km
500 à 1000 ft
800 à 1500m
200 à 500 ft
< 800m
< 200 ft
Symboles :   Orages  Brouillard  Fortes neiges  Fortes précipitations  Vent > 20 kt
SIGMETs :   Divers  Orages  Givrage  Turbulence  Onde Orograph.  Cendres Volcan.






- Altitude de l'aérodrome : 1768 ft


LEHC - Huesca Pirineos

DERNIER METAR :
  • 162330Z AUTO 08007KT CAVOK 19/13 Q1014

METARs EXPIRÉS :
  • 162300Z AUTO 08008KT CAVOK 19/12 Q1014
  • 162230Z AUTO 07007KT CAVOK 19/12 Q1014
  • 162200Z AUTO 07007KT 040V100 CAVOK 20/12 Q1014
  • 162130Z AUTO 06005KT 030V090 CAVOK 20/12 Q1014
  • 162100Z AUTO 12006KT 080V160 CAVOK 21/11 Q1013
  • 162030Z AUTO 14007KT 110V170 CAVOK 22/11 Q1013
  • 162000Z AUTO 13006KT 100V160 CAVOK 23/10 Q1012
  • 161930Z AUTO 13006KT 090V160 CAVOK 24/09 Q1012

TAF TAF LEHC
Valide du 16 à 15h jusqu'au 17 à 15h UTC


161400Z 1615/1715 19008KT CAVOK TX29/1714Z TN14/1705Z
TEMPO 1618/1622 13012KT
BECMG 1621/1624 11010KT
PROB40
TEMPO 1706/1709 BKN010



MET'MAP, la Météo Aéronautique d'un coup d'oeil ! - Copyright ORBIFLY Décembre 2007 - Disclaimer

ORBIFLY MET'MAP TEAM :

Programmation & Développement : Alexandra Zaïnal
Sur une idée originale de : Baudouin d'Aumeries
Soutien technique & logistique : Manuel Goepfert
Assistance : Marc-Olivier Méhu




SOURCES & CREDITS :

   NOAA